Terminal Aerodrome Forecast
Issued by NWS Greer, SC

Home | Current Version | Previous Version | Text Only | Print | Product List | Glossary On
Versions: 1 2 3 4 5 6 7 8 9 10 11 12 13 14 15 16 17
000
FTUS42 KGSP 281738
TAFAVL
TAF
KAVL 281738Z 2818/0118 18012G18KT P6SM SCT040 OVC150
     FM282100 19008KT P6SM VCSH OVC040
      TEMPO 2822/0101 4SM -SHRA OVC025
     FM010100 18005KT P6SM VCSH OVC015
     FM010500 18005KT 6SM BR OVC008
     FM011000 19008KT P6SM BKN015
     FM011400 20009KT P6SM BKN035 PROB30 0114/0118 4SM -SHRA OVC025=

USA.gov is the U.S. government's official web portal to all federal, state and local government web resources and services.